createdAt,value
2024-01-01T00:01:58.324Z,26.20
2024-01-01T00:04:27.834Z,26.20
2024-01-01T00:06:54.613Z,22.60
2024-01-01T00:09:21.386Z,18.40
2024-01-01T00:11:48.465Z,18.90
2024-01-01T00:14:15.491Z,17.50
2024-01-01T00:16:43.175Z,17.30
2024-01-01T00:19:10.426Z,16.10
2024-01-01T00:21:37.251Z,21.70
2024-01-01T00:24:04.104Z,19.00
2024-01-01T00:26:30.961Z,17.70
2024-01-01T00:28:57.796Z,18.70
2024-01-01T00:31:24.646Z,18.80
2024-01-01T00:33:51.727Z,18.90
2024-01-01T00:36:18.704Z,17.10
2024-01-01T00:38:46.042Z,17.60
2024-01-01T00:41:17.644Z,18.20
2024-01-01T00:43:44.744Z,16.50
2024-01-01T00:46:12.280Z,19.10
2024-01-01T00:48:39.466Z,19.30
2024-01-01T00:51:06.621Z,20.50
2024-01-01T00:53:34.913Z,19.90
2024-01-01T00:56:01.923Z,20.20
2024-01-01T00:58:28.887Z,25.80
2024-01-01T01:00:57.743Z,24.40
2024-01-01T01:03:25.011Z,26.70
2024-01-01T01:05:52.314Z,23.40
2024-01-01T01:08:19.449Z,22.40
2024-01-01T01:10:47.321Z,22.90
2024-01-01T01:13:14.129Z,21.90
2024-01-01T01:15:40.934Z,23.00
2024-01-01T01:18:09.120Z,20.80
2024-01-01T01:20:36.207Z,22.00
2024-01-01T01:23:03.437Z,24.80
2024-01-01T01:25:31.304Z,23.60
2024-01-01T01:27:59.233Z,22.90
2024-01-01T01:30:26.089Z,24.70
2024-01-01T01:32:53.016Z,25.20
2024-01-01T01:35:19.891Z,22.70
2024-01-01T01:37:46.694Z,26.60
2024-01-01T01:40:13.850Z,28.10
2024-01-01T01:42:40.929Z,21.70
2024-01-01T01:45:08.250Z,20.90
2024-01-01T01:47:36.769Z,22.50
2024-01-01T01:50:05.336Z,20.70
2024-01-01T01:52:32.347Z,23.70
2024-01-01T01:54:59.473Z,26.90
2024-01-01T01:57:27.680Z,21.00
2024-01-01T01:59:54.852Z,21.70
2024-01-01T02:02:24.869Z,21.50
2024-01-01T02:04:51.978Z,21.00
2024-01-01T02:07:18.984Z,19.60
2024-01-01T02:09:45.946Z,19.60
2024-01-01T02:12:12.781Z,20.20
2024-01-01T02:14:39.578Z,21.00
2024-01-01T02:17:06.617Z,20.40
2024-01-01T02:19:34.798Z,21.70
2024-01-01T02:22:03.023Z,20.30
2024-01-01T02:24:29.917Z,21.50
2024-01-01T02:26:56.748Z,18.90
2024-01-01T02:29:24.517Z,20.20
2024-01-01T02:31:51.771Z,21.30
2024-01-01T02:34:19.938Z,17.80
2024-01-01T02:36:46.729Z,18.90
2024-01-01T02:39:13.533Z,18.10
2024-01-01T02:41:41.063Z,18.60
2024-01-01T02:44:08.431Z,18.50
2024-01-01T02:46:35.625Z,18.00
2024-01-01T02:49:02.548Z,15.70
2024-01-01T02:51:29.376Z,17.20
2024-01-01T02:53:58.382Z,18.80
2024-01-01T02:56:25.628Z,18.50
2024-01-01T02:58:54.475Z,21.30
2024-01-01T03:01:21.768Z,20.10
2024-01-01T03:03:48.608Z,19.70
2024-01-01T03:06:19.519Z,18.60
2024-01-01T03:08:46.997Z,17.00
2024-01-01T03:11:14.080Z,17.90
2024-01-01T03:13:41.088Z,17.50
2024-01-01T03:16:09.338Z,18.60
2024-01-01T03:18:36.689Z,16.50
2024-01-01T03:21:05.062Z,18.20
2024-01-01T03:23:32.189Z,17.60
2024-01-01T03:25:59.198Z,17.00
2024-01-01T03:28:26.092Z,18.70
2024-01-01T03:30:53.464Z,18.90
2024-01-01T03:33:20.469Z,16.50
2024-01-01T03:35:47.407Z,15.80
2024-01-01T03:38:14.332Z,18.40
2024-01-01T03:40:41.914Z,21.80
2024-01-01T03:43:08.947Z,19.70
2024-01-01T03:45:35.928Z,27.60
2024-01-01T03:48:03.638Z,30.70
2024-01-01T03:50:30.747Z,32.80
2024-01-01T03:52:57.864Z,29.90
2024-01-01T03:55:24.838Z,29.70
2024-01-01T03:57:51.786Z,30.50
2024-01-01T04:00:18.880Z,30.10
2024-01-01T04:02:47.845Z,30.40
2024-01-01T04:05:15.046Z,31.80
2024-01-01T04:07:42.542Z,32.20
2024-01-01T04:10:10.801Z,33.50
2024-01-01T04:12:38.580Z,32.50
2024-01-01T04:15:06.674Z,33.00
2024-01-01T04:17:34.123Z,39.60
2024-01-01T04:20:01.220Z,34.30
2024-01-01T04:22:28.149Z,36.40
2024-01-01T04:24:55.140Z,37.30
2024-01-01T04:27:22.000Z,37.40
2024-01-01T04:29:49.478Z,35.20
2024-01-01T04:32:16.343Z,34.70
2024-01-01T04:34:43.200Z,33.40
2024-01-01T04:37:10.068Z,31.70
2024-01-01T04:39:36.900Z,32.60
2024-01-01T04:42:04.765Z,30.90
2024-01-01T04:44:31.786Z,32.20
2024-01-01T04:46:59.110Z,30.60
2024-01-01T04:49:26.018Z,29.40
2024-01-01T04:51:53.459Z,31.60
2024-01-01T04:54:20.340Z,33.80
2024-01-01T04:56:47.134Z,34.60
2024-01-01T04:59:14.462Z,34.20
2024-01-01T05:01:41.360Z,33.70
2024-01-01T05:04:08.302Z,27.10
2024-01-01T05:06:35.295Z,26.30
2024-01-01T05:09:02.098Z,25.80
2024-01-01T05:11:30.706Z,29.10
2024-01-01T05:13:58.093Z,29.60
2024-01-01T05:16:25.007Z,28.70
2024-01-01T05:18:52.108Z,30.10
2024-01-01T05:21:19.029Z,32.60
2024-01-01T05:23:45.950Z,31.90
2024-01-01T05:26:13.009Z,34.00
2024-01-01T05:28:40.180Z,34.60
2024-01-01T05:31:06.997Z,29.40
2024-01-01T05:33:35.075Z,34.30
2024-01-01T05:36:02.298Z,36.70
2024-01-01T05:38:29.949Z,32.10
2024-01-01T05:40:56.727Z,30.20
2024-01-01T05:43:23.933Z,37.30
2024-01-01T05:45:50.773Z,33.40
2024-01-01T05:48:25.693Z,37.60
2024-01-01T05:50:56.965Z,34.20
2024-01-01T05:53:23.857Z,37.80
2024-01-01T05:55:51.332Z,37.80
2024-01-01T05:58:19.252Z,42.30
2024-01-01T06:00:46.504Z,45.80
2024-01-01T06:03:13.653Z,45.10
2024-01-01T06:05:41.701Z,41.90
2024-01-01T06:08:08.899Z,40.90
2024-01-01T06:10:36.279Z,39.80
2024-01-01T06:13:04.067Z,39.80
2024-01-01T06:15:30.882Z,39.70
2024-01-01T06:17:58.021Z,35.90
2024-01-01T06:20:25.063Z,36.30
2024-01-01T06:22:51.969Z,36.30
2024-01-01T06:25:19.370Z,36.60
2024-01-01T06:27:46.619Z,38.10
2024-01-01T06:30:13.624Z,38.70
2024-01-01T06:32:40.559Z,37.70
2024-01-01T06:35:08.178Z,38.40
2024-01-01T06:37:35.214Z,37.40
2024-01-01T06:40:02.843Z,39.30
2024-01-01T06:42:29.888Z,39.60
2024-01-01T06:45:08.212Z,38.50
2024-01-01T06:47:35.295Z,35.90
2024-01-01T06:50:02.419Z,38.90
2024-01-01T06:52:29.383Z,32.40
2024-01-01T06:54:56.574Z,34.50
2024-01-01T06:57:23.390Z,32.80
2024-01-01T06:59:50.190Z,35.20
2024-01-01T07:02:17.218Z,34.90
2024-01-01T07:04:44.221Z,29.40
2024-01-01T07:07:11.830Z,31.00
2024-01-01T07:09:39.580Z,31.00
2024-01-01T07:12:21.612Z,34.30
2024-01-01T07:14:49.177Z,35.60
2024-01-01T07:17:16.946Z,37.40
2024-01-01T07:19:44.202Z,36.50
2024-01-01T07:22:11.392Z,37.80
2024-01-01T07:24:38.814Z,37.30
2024-01-01T07:27:06.484Z,38.10
2024-01-01T07:29:33.314Z,38.20
2024-01-01T07:32:00.245Z,36.50
2024-01-01T07:34:27.417Z,31.10
2024-01-01T07:36:56.353Z,26.30
2024-01-01T07:39:24.696Z,27.60
2024-01-01T07:41:54.840Z,26.50
2024-01-01T07:44:22.775Z,26.00
2024-01-01T07:46:50.361Z,24.50
2024-01-01T07:49:18.087Z,26.40
2024-01-01T07:51:45.137Z,25.20
2024-01-01T07:54:12.154Z,24.10
2024-01-01T07:56:44.939Z,23.20
2024-01-01T07:59:13.576Z,25.80
2024-01-01T08:01:41.720Z,23.90
2024-01-01T08:04:09.032Z,21.50
2024-01-01T08:06:37.582Z,23.00
2024-01-01T08:09:04.950Z,23.20
2024-01-01T08:11:32.006Z,22.60
2024-01-01T08:13:59.349Z,22.20
2024-01-01T08:16:27.101Z,24.30
2024-01-01T08:18:54.665Z,26.90
2024-01-01T08:21:22.641Z,26.60
2024-01-01T08:23:52.353Z,25.60
2024-01-01T08:26:20.960Z,30.90
2024-01-01T08:28:54.013Z,30.50
2024-01-01T08:31:21.974Z,30.00
2024-01-01T08:33:50.589Z,31.10
2024-01-01T08:36:17.927Z,28.40
2024-01-01T08:38:44.726Z,29.70
2024-01-01T08:41:13.032Z,27.00
2024-01-01T08:43:41.092Z,28.20
2024-01-01T08:46:07.875Z,24.10
2024-01-01T08:48:35.030Z,26.20
2024-01-01T08:51:02.650Z,28.40
2024-01-01T08:53:31.592Z,21.20
2024-01-01T08:56:00.136Z,22.00
2024-01-01T08:58:27.756Z,24.40
2024-01-01T09:00:54.637Z,26.20
2024-01-01T09:03:21.492Z,23.40
2024-01-01T09:05:48.517Z,19.70
2024-01-01T09:08:15.460Z,18.60
2024-01-01T09:10:42.377Z,16.80
2024-01-01T09:13:09.526Z,13.10
2024-01-01T09:15:36.373Z,12.60
2024-01-01T09:18:03.444Z,11.60
2024-01-01T09:20:30.839Z,10.30
2024-01-01T09:22:58.163Z,10.90
2024-01-01T09:25:25.097Z,10.50
2024-01-01T09:27:52.117Z,11.10
2024-01-01T09:30:19.063Z,10.70
2024-01-01T09:32:46.037Z,11.10
2024-01-01T09:35:13.198Z,11.40
2024-01-01T09:37:40.122Z,11.00
2024-01-01T09:40:07.824Z,10.00
2024-01-01T09:42:34.815Z,11.10
2024-01-01T09:45:04.535Z,11.40
2024-01-01T09:47:33.936Z,10.90
2024-01-01T09:50:01.192Z,11.20
2024-01-01T09:52:28.372Z,10.80
2024-01-01T09:54:55.565Z,10.70
2024-01-01T09:57:22.651Z,8.60
2024-01-01T09:59:49.502Z,9.30
2024-01-01T10:02:16.328Z,9.90
2024-01-01T10:04:44.118Z,7.80
2024-01-01T10:07:10.978Z,7.10
2024-01-01T10:09:50.728Z,7.10
2024-01-01T10:12:23.212Z,6.70
2024-01-01T10:14:51.802Z,6.90
2024-01-01T10:17:19.875Z,7.70
2024-01-01T10:19:57.931Z,7.30
2024-01-01T10:22:32.138Z,8.00
2024-01-01T10:25:13.989Z,6.70
2024-01-01T10:27:44.932Z,6.80
2024-01-01T10:30:12.699Z,5.50
2024-01-01T10:32:42.172Z,5.20
2024-01-01T10:35:11.510Z,4.80
2024-01-01T10:37:39.861Z,4.50
2024-01-01T10:40:09.050Z,4.00
2024-01-01T10:42:36.046Z,3.70
2024-01-01T10:45:06.608Z,3.50
2024-01-01T10:47:34.498Z,3.70
2024-01-01T10:50:31.836Z,3.30
2024-01-01T10:53:08.158Z,3.90
2024-01-01T10:55:53.335Z,4.40
2024-01-01T10:58:25.291Z,3.60
2024-01-01T11:01:12.596Z,3.60
2024-01-01T11:03:40.973Z,3.60
2024-01-01T11:06:32.930Z,3.90
2024-01-01T11:09:19.974Z,3.10
2024-01-01T11:11:47.980Z,2.90
2024-01-01T11:14:46.792Z,3.10
2024-01-01T11:17:23.794Z,3.60
2024-01-01T11:19:52.845Z,2.70
2024-01-01T11:22:32.742Z,3.20
2024-01-01T11:25:01.412Z,2.90
2024-01-01T11:27:35.719Z,2.30
2024-01-01T11:30:08.816Z,2.40
2024-01-01T11:32:36.785Z,2.40
2024-01-01T11:35:05.907Z,2.50
2024-01-01T11:37:34.010Z,2.80
2024-01-01T11:40:05.864Z,3.00
2024-01-01T11:42:33.224Z,2.70
2024-01-01T11:45:12.759Z,2.90
2024-01-01T11:47:41.218Z,3.20
2024-01-01T11:50:09.870Z,3.20
2024-01-01T11:52:37.204Z,3.50
2024-01-01T11:55:04.694Z,2.60
2024-01-01T11:57:31.939Z,3.40
2024-01-01T11:59:59.291Z,2.80
2024-01-01T12:02:26.721Z,3.60
2024-01-01T12:04:56.103Z,3.20
2024-01-01T12:07:30.870Z,2.70
2024-01-01T12:10:07.878Z,9.00
2024-01-01T12:12:40.319Z,6.40
2024-01-01T12:15:17.682Z,8.20
2024-01-01T12:17:49.513Z,7.60
2024-01-01T12:20:18.326Z,6.60
2024-01-01T12:22:46.528Z,5.60
2024-01-01T12:25:18.327Z,6.50
2024-01-01T12:27:46.299Z,5.80
2024-01-01T12:30:28.942Z,7.10
2024-01-01T12:32:56.092Z,5.40
2024-01-01T12:35:23.216Z,4.90
2024-01-01T12:37:51.396Z,4.80
2024-01-01T12:40:18.555Z,5.60
2024-01-01T12:42:46.140Z,5.70
2024-01-01T12:45:17.916Z,6.60
2024-01-01T12:47:45.015Z,5.40
2024-01-01T12:50:12.696Z,5.10
2024-01-01T12:52:40.170Z,5.90
2024-01-01T12:55:08.494Z,6.10
2024-01-01T12:57:35.201Z,6.20
2024-01-01T13:00:02.480Z,6.00
2024-01-01T13:02:29.939Z,7.90
2024-01-01T13:04:56.777Z,7.60
2024-01-01T13:07:24.040Z,6.50
2024-01-01T13:09:50.983Z,6.60
2024-01-01T13:12:18.233Z,7.80
2024-01-01T13:14:46.052Z,6.70
2024-01-01T13:17:13.487Z,6.20
2024-01-01T13:19:40.479Z,6.00
2024-01-01T13:22:09.378Z,6.00
2024-01-01T13:24:37.214Z,6.10
2024-01-01T13:27:04.608Z,6.30
2024-01-01T13:29:32.280Z,6.00
2024-01-01T13:31:59.055Z,5.50
2024-01-01T13:34:26.044Z,6.30
2024-01-01T13:36:53.335Z,6.90
2024-01-01T13:39:20.173Z,7.10
2024-01-01T13:41:47.844Z,6.20
2024-01-01T13:44:14.898Z,6.50
2024-01-01T13:46:42.020Z,6.60
2024-01-01T13:49:08.910Z,6.60
2024-01-01T13:51:35.919Z,5.50
2024-01-01T13:54:02.940Z,7.50
2024-01-01T13:56:29.751Z,6.70
2024-01-01T13:58:56.593Z,7.70
2024-01-01T14:01:23.460Z,7.80
2024-01-01T14:03:51.386Z,7.60
2024-01-01T14:06:18.408Z,7.80
2024-01-01T14:08:45.374Z,6.40
2024-01-01T14:11:12.687Z,5.50
2024-01-01T14:13:39.480Z,7.70
2024-01-01T14:16:06.400Z,7.40
2024-01-01T14:18:33.297Z,8.50
2024-01-01T14:21:00.119Z,7.30
2024-01-01T14:23:26.885Z,7.50
2024-01-01T14:25:54.368Z,7.50
2024-01-01T14:28:21.242Z,8.10
2024-01-01T14:30:52.849Z,7.30
2024-01-01T14:33:23.237Z,7.70
2024-01-01T14:35:50.122Z,8.20
2024-01-01T14:38:17.564Z,9.30
2024-01-01T14:40:44.810Z,10.90
2024-01-01T14:43:11.546Z,16.20
2024-01-01T14:45:38.332Z,11.50
2024-01-01T14:48:05.936Z,9.40
2024-01-01T14:50:39.845Z,11.60
2024-01-01T14:53:08.309Z,10.80
2024-01-01T14:55:36.692Z,10.30
2024-01-01T14:58:03.567Z,9.60
2024-01-01T15:00:31.437Z,9.70
2024-01-01T15:02:58.826Z,9.40
2024-01-01T15:05:27.395Z,10.20
2024-01-01T15:07:54.756Z,10.30
2024-01-01T15:10:21.492Z,9.10
2024-01-01T15:12:48.600Z,9.40
2024-01-01T15:15:16.244Z,8.00
2024-01-01T15:17:44.725Z,9.70
2024-01-01T15:20:12.430Z,10.00
2024-01-01T15:22:39.689Z,10.60
2024-01-01T15:25:06.613Z,10.70
2024-01-01T15:27:33.299Z,9.00
2024-01-01T15:30:00.509Z,9.70
2024-01-01T15:32:28.220Z,9.80
2024-01-01T15:34:55.248Z,10.30
2024-01-01T15:37:22.163Z,10.10
2024-01-01T15:39:49.025Z,9.80
2024-01-01T15:42:15.727Z,9.90
2024-01-01T15:44:42.710Z,10.50
2024-01-01T15:47:10.341Z,9.50
2024-01-01T15:49:37.241Z,7.10
2024-01-01T15:52:11.249Z,10.20
2024-01-01T15:54:41.429Z,10.00
2024-01-01T15:57:09.590Z,10.20
2024-01-01T15:59:37.067Z,12.10
2024-01-01T16:02:07.821Z,11.10
2024-01-01T16:04:37.532Z,10.90
2024-01-01T16:07:04.661Z,11.00
2024-01-01T16:09:31.761Z,11.60
2024-01-01T16:11:58.786Z,11.10
2024-01-01T16:14:26.002Z,10.40
2024-01-01T16:16:56.557Z,11.00
2024-01-01T16:19:33.198Z,10.90
2024-01-01T16:22:01.396Z,9.20
2024-01-01T16:24:28.287Z,11.40
2024-01-01T16:26:55.078Z,11.70
2024-01-01T16:29:21.899Z,12.60
2024-01-01T16:31:49.062Z,12.90
2024-01-01T16:34:16.221Z,12.20
2024-01-01T16:36:46.158Z,12.20
2024-01-01T16:39:15.822Z,12.00
2024-01-01T16:41:42.539Z,11.30
2024-01-01T16:44:10.037Z,8.70
2024-01-01T16:46:37.227Z,9.50
2024-01-01T16:49:04.030Z,9.30
2024-01-01T16:51:30.789Z,9.40
2024-01-01T16:53:57.960Z,9.90
2024-01-01T16:56:26.764Z,9.90
2024-01-01T16:58:53.981Z,9.20
2024-01-01T17:01:24.023Z,11.10
2024-01-01T17:03:50.903Z,11.10
2024-01-01T17:06:21.542Z,11.30
2024-01-01T17:08:49.057Z,11.10
2024-01-01T17:11:16.996Z,9.70
2024-01-01T17:13:44.802Z,9.70
2024-01-01T17:16:14.821Z,9.10
2024-01-01T17:18:44.276Z,8.20
2024-01-01T17:21:11.646Z,8.10
2024-01-01T17:23:39.116Z,8.70
2024-01-01T17:26:05.996Z,10.10
2024-01-01T17:28:34.914Z,11.30
2024-01-01T17:31:03.101Z,10.70
2024-01-01T17:33:29.923Z,8.90
2024-01-01T17:35:58.911Z,10.00
2024-01-01T17:38:26.380Z,11.60
2024-01-01T17:40:55.161Z,11.30
2024-01-01T17:43:22.828Z,10.30
2024-01-01T17:45:49.768Z,11.40
2024-01-01T17:48:16.608Z,10.80
2024-01-01T17:50:43.657Z,10.00
2024-01-01T17:53:10.915Z,8.40
2024-01-01T17:55:37.686Z,8.40
2024-01-01T17:58:04.464Z,8.50
2024-01-01T18:00:31.693Z,7.20
2024-01-01T18:02:58.841Z,7.90
2024-01-01T18:05:26.179Z,8.00
2024-01-01T18:07:53.629Z,7.40
2024-01-01T18:10:20.386Z,7.70
2024-01-01T18:12:47.457Z,9.00
2024-01-01T18:15:15.901Z,8.20
2024-01-01T18:17:43.316Z,7.60
2024-01-01T18:20:11.078Z,7.80
2024-01-01T18:22:39.306Z,8.60
2024-01-01T18:25:06.690Z,9.00
2024-01-01T18:27:35.198Z,9.00
2024-01-01T18:30:02.805Z,9.30
2024-01-01T18:32:31.332Z,8.80
2024-01-01T18:34:58.284Z,8.50
2024-01-01T18:37:25.143Z,9.30
2024-01-01T18:39:52.156Z,9.00
2024-01-01T18:42:18.955Z,8.60
2024-01-01T18:44:45.868Z,8.40
2024-01-01T18:47:12.755Z,8.60
2024-01-01T18:49:39.817Z,9.10
2024-01-01T18:52:07.128Z,8.30
2024-01-01T18:54:33.853Z,7.70
2024-01-01T18:57:00.664Z,8.10
2024-01-01T18:59:27.482Z,8.40
2024-01-01T19:01:54.865Z,9.40
2024-01-01T19:04:21.823Z,8.60
2024-01-01T19:06:48.948Z,10.30
2024-01-01T19:09:15.691Z,8.90
2024-01-01T19:11:43.160Z,8.30
2024-01-01T19:14:14.655Z,20.10
2024-01-01T19:16:41.953Z,15.60
2024-01-01T19:19:09.519Z,10.10
2024-01-01T19:21:43.315Z,9.10
2024-01-01T19:24:17.210Z,8.70
2024-01-01T19:26:47.711Z,8.80
2024-01-01T19:29:15.408Z,8.00
2024-01-01T19:31:43.635Z,9.50
2024-01-01T19:34:11.224Z,9.00
2024-01-01T19:36:38.343Z,9.00
2024-01-01T19:39:06.296Z,8.10
2024-01-01T19:41:33.609Z,9.10
2024-01-01T19:44:02.422Z,9.20
2024-01-01T19:46:29.553Z,9.20
2024-01-01T19:48:58.530Z,8.90
2024-01-01T19:51:25.635Z,9.70
2024-01-01T19:53:52.626Z,10.00
2024-01-01T19:56:26.635Z,12.10
2024-01-01T19:58:53.578Z,12.10
2024-01-01T20:01:20.969Z,11.70
2024-01-01T20:03:47.974Z,9.70
2024-01-01T20:06:14.891Z,9.40
2024-01-01T20:08:41.830Z,9.40
2024-01-01T20:11:09.331Z,9.90
2024-01-01T20:13:39.856Z,9.90
2024-01-01T20:16:06.927Z,9.60
2024-01-01T20:18:35.959Z,9.00
2024-01-01T20:21:02.918Z,8.30
2024-01-01T20:23:29.893Z,8.10
2024-01-01T20:25:56.788Z,12.60
2024-01-01T20:28:23.509Z,9.30
2024-01-01T20:30:50.461Z,8.60
2024-01-01T20:33:17.526Z,9.10
2024-01-01T20:35:44.318Z,8.50
2024-01-01T20:38:11.758Z,8.40
2024-01-01T20:40:38.529Z,7.30
2024-01-01T20:43:05.331Z,7.70
2024-01-01T20:45:32.291Z,8.00
2024-01-01T20:47:59.839Z,7.40
2024-01-01T20:50:26.736Z,7.00
2024-01-01T20:52:56.485Z,6.50
2024-01-01T20:55:25.432Z,6.80
2024-01-01T20:57:52.217Z,7.00
2024-01-01T21:00:19.904Z,6.40
2024-01-01T21:02:46.726Z,6.50
2024-01-01T21:05:14.405Z,6.50
2024-01-01T21:07:44.303Z,6.80
2024-01-01T21:10:11.918Z,6.60
2024-01-01T21:12:40.922Z,6.70
2024-01-01T21:15:13.002Z,5.70
2024-01-01T21:17:42.529Z,5.40
2024-01-01T21:20:10.334Z,5.80
2024-01-01T21:22:37.120Z,5.50
2024-01-01T21:25:04.818Z,5.80
2024-01-01T21:27:31.577Z,6.10
2024-01-01T21:29:58.425Z,7.20
2024-01-01T21:32:25.354Z,7.30
2024-01-01T21:34:52.532Z,6.40
2024-01-01T21:37:19.511Z,6.00
2024-01-01T21:39:46.419Z,6.00
2024-01-01T21:42:13.114Z,5.00
2024-01-01T21:44:39.864Z,5.60
2024-01-01T21:47:07.940Z,5.20
2024-01-01T21:49:34.686Z,5.10
2024-01-01T21:52:01.672Z,5.80
2024-01-01T21:54:28.739Z,5.30
2024-01-01T21:56:55.419Z,6.20
2024-01-01T21:59:22.306Z,5.40
2024-01-01T22:01:49.383Z,5.10
2024-01-01T22:04:16.271Z,5.00
2024-01-01T22:06:44.126Z,5.00
2024-01-01T22:09:11.744Z,5.30
2024-01-01T22:11:38.492Z,6.20
2024-01-01T22:14:05.350Z,5.20
2024-01-01T22:16:32.109Z,5.20
2024-01-01T22:18:58.940Z,5.20
2024-01-01T22:21:26.176Z,5.20
2024-01-01T22:23:52.976Z,4.90
2024-01-01T22:26:20.614Z,4.50
2024-01-01T22:28:47.951Z,4.90
2024-01-01T22:31:18.449Z,5.20
2024-01-01T22:33:45.453Z,4.90
2024-01-01T22:36:12.291Z,5.60
2024-01-01T22:38:44.274Z,5.70
2024-01-01T22:41:11.001Z,5.50
2024-01-01T22:43:37.817Z,6.10
2024-01-01T22:46:05.469Z,6.00
2024-01-01T22:48:33.110Z,5.80
2024-01-01T22:51:00.074Z,6.00
2024-01-01T22:53:27.226Z,5.60
2024-01-01T22:55:54.132Z,5.60
2024-01-01T22:58:20.977Z,4.80
2024-01-01T23:00:50.580Z,5.60
2024-01-01T23:03:17.402Z,6.40
2024-01-01T23:05:44.289Z,6.30
2024-01-01T23:08:11.290Z,7.00
2024-01-01T23:10:38.070Z,6.00
2024-01-01T23:13:04.999Z,5.70
2024-01-01T23:15:32.180Z,5.00
2024-01-01T23:18:01.112Z,4.80
2024-01-01T23:20:27.898Z,4.30
2024-01-01T23:22:56.264Z,5.10
2024-01-01T23:25:23.453Z,4.60
2024-01-01T23:27:50.979Z,5.70
2024-01-01T23:30:19.157Z,4.60
2024-01-01T23:32:47.063Z,5.10
2024-01-01T23:35:14.041Z,4.90
2024-01-01T23:37:41.740Z,5.60
2024-01-01T23:40:14.216Z,5.60
2024-01-01T23:42:40.963Z,5.30
2024-01-01T23:45:08.385Z,5.10
2024-01-01T23:47:35.285Z,5.00
2024-01-01T23:50:02.081Z,5.00
2024-01-01T23:52:29.046Z,4.40
2024-01-01T23:54:55.987Z,4.70
2024-01-01T23:57:22.728Z,4.80
2024-01-01T23:59:49.606Z,6.90
